• Join FlightAware (Why Join?)
  • Login
  • US Flag 
02:43PM EDT


 

Airport Tracker/Info


-or-


 

Live Flight TrackerFlight Track Log ✈ UPS1337 ✈ 19-Mar-2014 ✈ KPIE - KSDF

Flight Track Log - Related Links

Times and Time Zones

All times are in EDT time to prevent confusion due to time zone crossing. See the UPS1337 flight status page for this flight to view local times or setup timezone preferences in your user account.

Time Position Orientation Groundspeed Altitude Reporting Facility
EDT Latitude Longitude Course Direction KTS MPH feet Rate Location/Type
09:49PM 27.9167 -82.6833 319° Northwest 158 182 800  Level Tampa TRACON
09:49PM 27.9333 -82.7000 319° Northwest 169 194 1,600 1,980 Climbing Tampa TRACON
09:50PM 27.9833 -82.6833 16° North 265 305 3,200 3,120 Climbing Tampa TRACON
09:52PM 28.0978 -82.7325 339° North 276 318 9,500 2,820 Climbing Jacksonville Center
09:57PM 28.6751 -82.9727 342° North 443 510 23,700 2,340 Climbing FlightAware ADS-B (KMCO)
09:59PM 28.8344 -83.0206 342° North 438 504 26,100 1,680 Climbing Jacksonville Center
10:00PM 28.9617 -83.0564 346° North 450 518 27,900 2,100 Climbing Jacksonville Center
10:01PM 29.0847 -83.0922 346° North 455 524 30,300 2,340 Climbing Jacksonville Center
10:02PM 29.2058 -83.1258 346° North 455 524 32,700 1,800 Climbing Jacksonville Center
10:03PM 29.3350 -83.1642 345° North 442 509 34,000 600 Climbing Jacksonville Center
10:04PM 29.4539 -83.1978 346° North 437 503 34,000  Level Jacksonville Center
10:05PM 29.5772 -83.2342 346° North 442 509 34,000 -60 Level Jacksonville Center
10:06PM 29.6939 -83.2703 345° North 442 509 33,900  Descending Jacksonville Center
10:07PM 29.8150 -83.3044 346° North 437 503 34,000  Climbing Jacksonville Center
10:08PM 29.9339 -83.3358 347° North 432 497 34,000  Level Jacksonville Center
10:09PM 30.0528 -83.3678 347° North 432 497 34,000  Level Jacksonville Center
10:10PM 30.1717 -83.4019 346° North 432 497 34,000  Level Jacksonville Center
10:11PM 30.2883 -83.4339 347° North 432 497 34,000  Level Jacksonville Center
10:12PM 30.4072 -83.4706 345° North 432 497 34,000  Level Jacksonville Center
10:13PM 30.5261 -83.5028 347° North 432 497 34,000  Level Jacksonville Center
10:14PM 30.6450 -83.5372 346° North 432 497 34,000  Level Jacksonville Center
10:15PM 30.7575 -83.5719 345° North 432 497 34,000  Level Jacksonville Center
10:16PM 30.8742 -83.6067 346° North 427 491 34,000  Level Jacksonville Center
10:17PM 30.9950 -83.6389 347° North 427 491 34,000  Level Jacksonville Center
10:18PM 31.1119 -83.6739 346° North 433 498 34,000  Level Jacksonville Center
10:19PM 31.2306 -83.7114 345° North 433 498 34,000  Level Jacksonville Center
10:21PM 31.4708 -83.7758 347° North 423 487 34,000  Level Atlanta Center
10:22PM 31.5961 -83.8000 351° North 434 499 34,000  Level Atlanta Center
10:23PM 31.7172 -83.8192 352° North 440 506 34,000  Level Atlanta Center
10:24PM 31.8592 -83.8458 351° North 460 529 34,000  Level Atlanta Center
10:25PM 31.9844 -83.8675 352° North 460 529 34,000  Level Atlanta Center
10:26PM 32.1097 -83.8892 352° North 460 529 34,000  Level Atlanta Center
10:27PM 32.2350 -83.9111 352° North 454 522 34,000  Level Atlanta Center
10:28PM 32.3581 -83.9331 351° North 449 517 34,000  Level Atlanta Center
10:29PM 32.4856 -83.9575 351° North 449 517 34,000  Level Atlanta Center
10:30PM 32.6086 -83.9797 351° North 449 517 34,000  Level Atlanta Center
10:31PM 32.7358 -84.0017 352° North 449 517 34,000  Level Atlanta Center
10:32PM 32.8611 -84.0239 352° North 449 517 34,000  Level Atlanta Center
10:33PM 32.9864 -84.0486 351° North 449 517 34,000  Level Atlanta Center
10:34PM 33.1075 -84.0736 350° North 444 511 34,000  Level Atlanta Center
10:35PM 33.2328 -84.0958 352° North 452 520 34,000  Level Atlanta Center
10:36PM 33.3600 -84.1183 352° North 452 520 34,000  Level Atlanta Center
10:41PM 34.1116 -84.2555 351° North 454 522 34,000  Level FlightAware ADS-B (KDZJ)
10:42PM 34.1959 -84.2714 351° North 444 511 34,000  Level FlightAware ADS-B (KDZJ)
10:42PM 34.2772 -84.2868 351° North 452 520 34,000  Level FlightAware ADS-B (KDZJ)
10:43PM 34.3609 -84.3028 351° North 453 521 34,000  Level FlightAware ADS-B (KDZJ)
10:44PM 34.4431 -84.3183 351° North 454 522 34,000  Level FlightAware ADS-B (KDZJ)
10:44PM 34.5246 -84.3336 351° North 456 525 34,000  Level FlightAware ADS-B (KDZJ)
10:45PM 34.6096 -84.3498 351° North 456 525 34,000  Level FlightAware ADS-B (KDZJ)
10:46PM 34.6907 -84.3654 351° North 456 525 34,000  Level FlightAware ADS-B (KDZJ)
10:46PM 34.7756 -84.3816 351° North 454 522 34,000  Level FlightAware ADS-B (KDZJ)
10:47PM 34.8554 -84.3968 351° North 455 524 34,000  Level FlightAware ADS-B (KDZJ)
10:48PM 34.9429 -84.4136 351° North 453 521 34,000  Level FlightAware ADS-B (KDZJ)
10:48PM 35.0236 -84.4292 351° North 454 522 34,000  Level FlightAware ADS-B (KDZJ)
10:49PM 35.1080 -84.4455 351° North 454 522 34,000  Level FlightAware ADS-B (KDZJ)
10:50PM 35.1914 -84.4615 351° North 453 521 34,000  Level FlightAware ADS-B (KDZJ)
10:50PM 35.2714 -84.4770 351° North 453 521 34,000 -600 Level FlightAware ADS-B (KDZJ)
10:51PM 35.3506 -84.4925 351° North 443 510 33,300 -840 Descending FlightAware ADS-B (KDZJ)
10:53PM 35.4797 -84.5176 351° North 451 519 32,100 -540 Descending FlightAware ADS-B (KMDQ)
10:57PM 36.0572 -84.6308 351° North 474 545 30,000 -360 Descending FlightAware ADS-B (KMDQ)
11:00PM 36.4510 -84.7091 351° North 477 549 29,800 -540 Descending FlightAware ADS-B (KMDQ)
11:02PM 36.6962 -84.7582 351° North 484 557 27,600 -1,320 Descending FlightAware ADS-B (KBRY)
11:03PM 36.8348 -84.7860 351° North 469 540 25,800 -1,560 Descending FlightAware ADS-B (KBRY)
11:04PM 36.9607 -84.8112 351° North 460 529 24,200 -1,560 Descending FlightAware ADS-B (KBRY)
11:05PM 37.1050 -84.8404 351° North 447 514 22,700 -2,760 Descending FlightAware ADS-B (KBRY)
11:06PM 37.2250 -84.8648 351° North 418 481 18,700 -3,900 Descending FlightAware ADS-B (KBRY)
11:07PM 37.3353 -84.8874 350° North 393 452 14,900 -3,420 Descending FlightAware ADS-B (KBRY)
11:08PM 37.4246 -84.9061 351° North 375 432 12,100 -1,500 Descending FlightAware ADS-B (KBRY)
11:11PM 37.6841 -84.9924 312° West 258 297 9,000 -1,140 Descending FlightAware ADS-B (KBRY)
11:12PM 37.7188 -85.0416 312° West 252 290 8,000 -1,560 Descending FlightAware ADS-B (KBRY)
11:14PM 37.8227 -85.1854 313° West 245 282 4,500 -1,260 Descending FlightAware ADS-B (KBRY)
11:15PM 37.8625 -85.2420 305° West 240 276 3,900 -300 Descending FlightAware ADS-B (KBRY)
11:16PM 37.8923 -85.3341 290° West 241 277 3,900  Level FlightAware ADS-B (KBRY)
11:17PM 37.9137 -85.4150 287° West 241 277 3,900 -240 Level FlightAware ADS-B (KBRY)
11:18PM 37.9336 -85.4962 287° West 239 275 3,500 -540 Descending FlightAware ADS-B (KBRY)
11:19PM 37.9539 -85.5730 304° West 219 252 2,900 -300 Descending FlightAware ADS-B (KBRY)
11:20PM 37.9907 -85.6203 313° West 188 216 2,900  Level FlightAware ADS-B (KBRY)
11:21PM 38.0265 -85.6678 315° West 169 194 2,900 -300 Level FlightAware ADS-B (KBRY)
11:22PM 38.0674 -85.6903 343° North 157 181 2,400 -480 Descending FlightAware ADS-B (KBRY)
11:22PM 38.0667 -85.7000 208° Southwest 152 175 2,400 -780 Level Louisville TRACON
11:23PM 38.1124 -85.7057 345° North 123 142 1,500 -840 Descending FlightAware ADS-B (KBRY)
11:24PM 38.1741 -85.7365 322° Northwest  Level Estimated
11:24PM 38.1350 -85.7135 345° North 118 136 800  Level FlightAware ADS-B (KBRY)
11:25PM 38.1667 -85.7167 322° Northwest 116 133 700 -240 Descending Louisville TRACON
11:27PM 38.1667 -85.7333 208° Southwest  Level FlightAware Approximate
11:28PM 38.1667 -85.7333 208° Southwest  Level FlightAware Approximate